Time;durP1;ratioP1;P1;durP2;ratioP2;P2;SDS_P1;SDS_P2;PMS_P1;PMS_P2;Temp;Humidity;BMP_temperature;BMP_pressure;BME280_temperature;BME280_humidity;BME280_pressure;Samples;Min_cycle;Max_cycle;Signal;HPM_P1;HPM_P2
2022/02/11 00:05:41;;;;;;;2.57;2.00;;;11.60;93.30;;;;;;5042110;28;20480;-79
2022/02/11 00:08:11;;;;;;;3.87;2.10;;;11.60;92.50;;;;;;5038675;28;20459;-81
2022/02/11 00:10:39;;;;;;;2.63;2.43;;;11.70;92.60;;;;;;5038953;28;20471;-79
2022/02/11 00:13:08;;;;;;;4.80;2.50;;;11.60;93.10;;;;;;5044046;28;21060;-80
2022/02/11 00:15:42;;;;;;;4.60;2.93;;;11.60;93.20;;;;;;5041449;28;20451;-80
2022/02/11 00:18:12;;;;;;;5.37;4.17;;;11.60;93.60;;;;;;5042638;28;20467;-80
2022/02/11 00:20:45;;;;;;;3.20;2.83;;;11.60;92.40;;;;;;5041550;28;20999;-79
2022/02/11 00:23:16;;;;;;;3.63;3.33;;;11.60;91.80;;;;;;5058477;28;20463;-80
2022/02/11 00:25:49;;;;;;;4.13;3.53;;;11.60;92.90;;;;;;5041557;28;20578;-79
2022/02/11 00:34:00;;;;;;;4.40;3.33;;;11.50;94.00;;;;;;5031292;28;20456;-79
2022/02/11 00:36:33;;;;;;;4.60;3.10;;;11.50;94.10;;;;;;5035244;28;20494;-80
2022/02/11 00:39:19;;;;;;;5.77;2.87;;;11.50;94.10;;;;;;5038795;28;20453;-79
2022/02/11 01:04:19;;;;;;;4.50;2.73;;;11.40;93.70;;;;;;4965777;28;20475;-80
2022/02/11 01:06:48;;;;;;;4.13;2.30;;;11.30;93.60;;;;;;5019621;28;20467;-79
2022/02/11 01:09:16;;;;;;;2.60;2.40;;;11.40;95.00;;;;;;5040453;28;20472;-80
2022/02/11 01:11:49;;;;;;;2.73;2.20;;;11.30;95.00;;;;;;5073233;28;20811;-79
2022/02/11 01:14:18;;;;;;;3.17;2.77;;;11.40;95.00;;;;;;5058427;28;21224;-79
2022/02/11 01:16:51;;;;;;;3.20;2.40;;;11.30;94.80;;;;;;5035915;28;21026;-79
2022/02/11 01:19:32;;;;;;;5.97;3.40;;;11.30;96.60;;;;;;5042227;28;21089;-79
2022/02/11 01:22:09;;;;;;;5.60;3.30;;;11.20;96.00;;;;;;5037291;28;20452;-79
2022/02/11 01:24:58;;;;;;;3.90;3.13;;;11.10;97.30;;;;;;5043910;28;20537;-79
2022/02/11 01:27:34;;;;;;;3.83;3.30;;;11.00;96.80;;;;;;5042679;28;20464;-79
2022/02/11 01:30:38;;;;;;;4.83;3.43;;;10.90;97.10;;;;;;5037883;28;20480;-79
2022/02/11 01:33:29;;;;;;;5.27;3.27;;;11.00;97.00;;;;;;5043341;28;20473;-79
2022/02/11 01:36:07;;;;;;;6.27;2.90;;;11.00;97.00;;;;;;5044809;28;20471;-79
2022/02/11 01:38:46;;;;;;;4.20;2.67;;;11.00;97.30;;;;;;5046405;28;20546;-79
2022/02/11 01:44:22;;;;;;;2.57;2.37;;;11.00;96.30;;;;;;5046039;28;20469;-78
2022/02/11 01:47:13;;;;;;;6.70;2.63;;;11.00;94.30;;;;;;5075890;28;20478;-78
2022/02/11 01:52:41;;;;;;;6.00;2.63;;;10.90;90.10;;;;;;5056373;28;20751;-79
2022/02/11 01:55:24;;;;;;;2.20;2.00;;;10.80;88.00;;;;;;5047027;28;20464;-78
2022/02/11 01:58:23;;;;;;;3.30;1.70;;;11.10;87.20;;;;;;5045371;28;21065;-79
2022/02/11 02:01:08;;;;;;;3.13;2.00;;;10.70;85.60;;;;;;5040213;28;20481;-79
2022/02/11 02:04:29;;;;;;;2.27;2.07;;;10.80;86.30;;;;;;5042919;28;20467;-79
2022/02/11 02:12:52;;;;;;;4.00;1.67;;;10.90;87.00;;;;;;5046313;28;20819;-80
2022/02/11 02:26:33;;;;;;;1.63;1.37;;;10.90;83.10;;;;;;5076491;28;21079;-79
2022/02/11 02:34:58;;;;;;;1.50;1.30;;;10.80;81.70;;;;;;5046466;28;20456;-79
2022/02/11 02:37:53;;;;;;;2.83;1.40;;;10.80;83.00;;;;;;5048491;28;20470;-80
2022/02/11 02:57:21;;;;;;;1.03;0.93;;;11.10;86.30;;;;;;5042187;28;20471;-80
2022/02/11 03:00:08;;;;;;;1.37;0.90;;;10.80;97.70;;;;;;5044996;28;20478;-80
2022/02/11 03:17:20;;;;;;;1.10;1.00;;;10.60;96.40;;;;;;5043294;28;20884;-80
2022/02/11 03:56:16;;;;;;;0.77;0.67;;;10.10;99.90;;;;;;5017062;28;20461;-79
2022/02/11 04:59:56;;;;;;;0.60;0.60;;;8.80;99.50;;;;;;5036679;28;20535;-80
2022/02/11 05:02:26;;;;;;;0.70;0.70;;;8.80;99.90;;;;;;5038758;28;20459;-80
2022/02/11 05:04:54;;;;;;;0.60;0.60;;;8.70;99.90;;;;;;5044959;28;20468;-79
2022/02/11 05:07:23;;;;;;;0.70;0.70;;;8.70;99.90;;;;;;5041729;28;20478;-80
2022/02/11 05:09:51;;;;;;;1.07;0.70;;;8.70;99.90;;;;;;5039288;28;20476;-77
2022/02/11 05:12:20;;;;;;;0.77;0.70;;;8.80;99.90;;;;;;5039224;28;20457;-80
2022/02/11 05:14:48;;;;;;;2.50;0.80;;;8.80;99.90;;;;;;5041685;28;21267;-79
2022/02/11 05:17:16;;;;;;;0.73;0.73;;;8.80;99.90;;;;;;5040135;28;20827;-80
2022/02/11 05:19:46;;;;;;;0.63;0.60;;;8.90;99.90;;;;;;5042548;28;20550;-79
2022/02/11 05:22:14;;;;;;;0.80;0.80;;;8.80;99.90;;;;;;5031504;28;20466;-80
2022/02/11 05:24:42;;;;;;;0.70;0.70;;;8.70;99.90;;;;;;5050984;28;20456;-79
2022/02/11 05:27:10;;;;;;;0.70;0.70;;;8.70;99.90;;;;;;5039516;28;20520;-79
2022/02/11 05:29:39;;;;;;;1.00;0.90;;;8.60;99.90;;;;;;5040096;28;20518;-80
2022/02/11 05:32:09;;;;;;;0.90;0.90;;;8.60;99.90;;;;;;5041835;28;20458;-77
2022/02/11 05:34:37;;;;;;;0.60;0.60;;;8.60;99.90;;;;;;5040603;28;20483;-77
2022/02/11 05:37:05;;;;;;;0.73;0.70;;;8.50;99.90;;;;;;5037095;28;20448;-77
2022/02/11 05:39:33;;;;;;;0.63;0.63;;;8.50;99.90;;;;;;5049828;28;20486;-76
2022/02/11 05:42:01;;;;;;;0.80;0.80;;;8.70;99.90;;;;;;5041288;28;20606;-77
2022/02/11 05:44:30;;;;;;;1.37;0.93;;;8.60;99.90;;;;;;5037803;28;20449;-77
2022/02/11 05:47:05;;;;;;;0.90;0.90;;;8.60;99.90;;;;;;5041628;28;20574;-76
2022/02/11 05:49:33;;;;;;;0.77;0.77;;;8.60;99.90;;;;;;5037363;28;20463;-77
2022/02/11 05:52:02;;;;;;;1.10;0.90;;;8.60;99.90;;;;;;5038290;28;20954;-76
2022/02/11 05:54:30;;;;;;;0.90;0.90;;;8.60;99.90;;;;;;5038361;28;20498;-76
2022/02/11 05:56:58;;;;;;;0.83;0.83;;;8.70;99.90;;;;;;5034333;28;20463;-76
2022/02/11 05:59:26;;;;;;;2.60;0.93;;;8.60;99.90;;;;;;5034039;28;20477;-76
2022/02/11 06:01:54;;;;;;;1.10;1.00;;;8.70;99.90;;;;;;5039048;28;20463;-76
2022/02/11 06:04:24;;;;;;;0.80;0.80;;;8.90;99.90;;;;;;5039385;28;20895;-77
2022/02/11 06:06:53;;;;;;;0.83;0.80;;;8.70;99.90;;;;;;5036514;28;20477;-76
2022/02/11 06:09:22;;;;;;;1.53;1.17;;;8.60;99.90;;;;;;5033604;28;20490;-76
2022/02/11 06:11:50;;;;;;;2.10;1.40;;;8.60;99.90;;;;;;5042083;28;20539;-76
2022/02/11 06:14:18;;;;;;;1.70;1.10;;;8.50;99.90;;;;;;5036466;28;20505;-76
2022/02/11 06:16:46;;;;;;;2.83;1.27;;;8.50;99.90;;;;;;5035065;28;20454;-76
2022/02/11 06:19:14;;;;;;;1.00;0.97;;;8.50;99.90;;;;;;5035867;28;20494;-76
2022/02/11 06:21:44;;;;;;;1.67;1.20;;;8.60;99.90;;;;;;5044622;28;20452;-76
2022/02/11 06:24:12;;;;;;;1.10;1.00;;;8.60;99.90;;;;;;5033061;28;20461;-76
2022/02/11 06:26:41;;;;;;;1.10;1.00;;;8.60;99.90;;;;;;5044323;28;20481;-75
2022/02/11 06:29:11;;;;;;;1.10;0.93;;;8.90;99.90;;;;;;5046290;28;20531;-76
2022/02/11 06:31:39;;;;;;;1.40;1.30;;;8.60;99.90;;;;;;5043735;28;20497;-77
2022/02/11 06:34:07;;;;;;;1.60;1.23;;;8.60;99.90;;;;;;5063437;28;20718;-76
2022/02/11 06:36:36;;;;;;;1.73;1.23;;;8.60;99.90;;;;;;5051022;28;20454;-76
2022/02/11 06:39:05;;;;;;;1.40;1.23;;;8.50;99.90;;;;;;5046980;28;20464;-76
2022/02/11 06:41:33;;;;;;;1.10;1.00;;;8.60;99.90;;;;;;5038014;28;20451;-76
2022/02/11 06:44:01;;;;;;;1.30;1.13;;;8.50;99.90;;;;;;5048121;28;20854;-76
2022/02/11 06:46:31;;;;;;;1.83;1.40;;;8.50;99.90;;;;;;5048913;28;21009;-76
2022/02/11 06:48:59;;;;;;;1.37;1.27;;;8.50;99.90;;;;;;5048339;28;20474;-76
2022/02/11 06:51:27;;;;;;;3.27;1.30;;;8.50;99.90;;;;;;5039208;28;20858;-76
2022/02/11 06:53:55;;;;;;;1.10;1.00;;;8.50;99.90;;;;;;5048347;28;20536;-76
2022/02/11 06:56:25;;;;;;;2.30;1.40;;;8.40;99.90;;;;;;5043947;28;20448;-76
2022/02/11 06:58:55;;;;;;;1.80;1.10;;;8.40;99.90;;;;;;5031139;28;20530;-75
2022/02/11 07:01:24;;;;;;;1.63;1.13;;;8.40;99.80;;;;;;5044272;28;20533;-75
2022/02/11 07:03:52;;;;;;;1.97;1.17;;;8.40;99.20;;;;;;5046414;28;20457;-75
2022/02/11 07:06:20;;;;;;;3.70;1.50;;;8.50;97.60;;;;;;5042251;28;20452;-75
2022/02/11 07:08:48;;;;;;;2.30;1.77;;;8.40;98.80;;;;;;5043968;28;20455;-75
2022/02/11 07:11:16;;;;;;;0.80;0.80;;;8.40;97.90;;;;;;5041973;28;20465;-75
2022/02/11 07:13:46;;;;;;;1.03;0.93;;;8.40;98.00;;;;;;5040421;28;20539;-75
2022/02/11 07:16:15;;;;;;;2.90;1.20;;;8.50;98.90;;;;;;5045821;28;20475;-75
2022/02/11 07:18:44;;;;;;;1.20;1.10;;;8.40;98.40;;;;;;5047266;28;20552;-76
2022/02/11 07:21:12;;;;;;;1.40;1.30;;;8.40;97.90;;;;;;5034550;28;20469;-75
2022/02/11 07:23:42;;;;;;;1.33;0.93;;;8.40;96.60;;;;;;5047320;28;20452;-76
2022/02/11 07:26:10;;;;;;;3.43;3.23;;;8.40;96.60;;;;;;5041981;28;20446;-76
2022/02/11 07:28:38;;;;;;;1.20;1.00;;;8.40;96.20;;;;;;5044164;28;20475;-75
2022/02/11 07:31:08;;;;;;;1.13;1.03;;;8.40;96.80;;;;;;5043661;28;20551;-75
2022/02/11 07:33:36;;;;;;;2.10;1.10;;;8.40;96.00;;;;;;5040155;28;20971;-75
2022/02/11 07:36:04;;;;;;;1.00;1.00;;;8.40;95.20;;;;;;5045367;28;20880;-77
2022/02/11 07:38:32;;;;;;;1.20;1.10;;;8.30;94.10;;;;;;5041715;28;20449;-75
2022/02/11 07:41:01;;;;;;;1.77;1.13;;;8.40;96.30;;;;;;5043617;28;20477;-75
2022/02/11 07:43:29;;;;;;;1.30;1.20;;;8.40;96.10;;;;;;5041322;28;20457;-75
2022/02/11 07:46:11;;;;;;;1.77;1.60;;;8.40;95.70;;;;;;5042553;28;20447;-75
2022/02/11 07:48:39;;;;;;;1.57;1.10;;;8.40;96.40;;;;;;5041155;28;21210;-75
2022/02/11 07:51:08;;;;;;;1.30;1.20;;;8.40;96.40;;;;;;5039761;28;21030;-75
2022/02/11 07:53:41;;;;;;;2.40;1.20;;;8.40;96.80;;;;;;5076280;28;20469;-77
2022/02/11 07:56:10;;;;;;;1.13;1.03;;;8.50;96.20;;;;;;5047138;28;20453;-75
2022/02/11 07:58:38;;;;;;;2.10;1.13;;;8.60;96.30;;;;;;5041425;28;20819;-77
2022/02/11 08:01:06;;;;;;;1.43;1.20;;;8.70;96.70;;;;;;5044874;28;20490;-76
2022/02/11 08:03:37;;;;;;;5.23;1.40;;;8.80;97.60;;;;;;5039606;28;20471;-75
2022/02/11 08:06:05;;;;;;;2.43;1.53;;;8.70;96.70;;;;;;5041297;28;20458;-76
2022/02/11 08:08:34;;;;;;;1.67;1.27;;;8.80;95.70;;;;;;5042761;28;20478;-76
2022/02/11 08:11:02;;;;;;;1.10;1.10;;;8.90;96.60;;;;;;5042595;28;20482;-76
2022/02/11 08:13:33;;;;;;;1.03;1.00;;;8.90;95.60;;;;;;5043262;28;20442;-75
2022/02/11 08:16:02;;;;;;;2.20;1.30;;;9.00;96.50;;;;;;5044100;28;20567;-76
2022/02/11 08:18:30;;;;;;;2.43;1.13;;;9.10;95.40;;;;;;5039346;28;20463;-76
2022/02/11 08:21:15;;;;;;;1.50;1.40;;;9.20;94.20;;;;;;5042059;28;20497;-76
2022/02/11 08:23:44;;;;;;;1.30;1.00;;;9.20;95.00;;;;;;5043335;28;20457;-77
2022/02/11 08:26:14;;;;;;;1.33;1.23;;;9.30;96.50;;;;;;5043388;28;20483;-76
2022/02/11 08:28:42;;;;;;;1.40;1.30;;;9.40;94.10;;;;;;5040856;28;20577;-76
2022/02/11 08:31:10;;;;;;;1.60;1.50;;;9.30;90.20;;;;;;5035791;28;21092;-76
2022/02/11 08:33:38;;;;;;;1.10;1.00;;;9.30;90.10;;;;;;5044682;28;20566;-76
2022/02/11 08:36:07;;;;;;;1.40;1.20;;;9.30;89.90;;;;;;5056708;28;20454;-75
2022/02/11 08:38:36;;;;;;;1.30;0.97;;;9.30;89.90;;;;;;5047584;28;20450;-75
2022/02/11 08:41:05;;;;;;;5.03;1.10;;;9.20;85.90;;;;;;5043052;28;20503;-76
2022/02/11 08:43:33;;;;;;;1.00;0.90;;;9.20;84.60;;;;;;5041237;28;20469;-75
2022/02/11 08:46:03;;;;;;;1.63;1.00;;;9.10;82.40;;;;;;5040299;28;20458;-77
2022/02/11 08:48:31;;;;;;;1.73;1.37;;;9.10;84.70;;;;;;5042491;28;20571;-76
2022/02/11 08:51:00;;;;;;;2.00;1.00;;;9.10;81.70;;;;;;5039651;28;21038;-76
2022/02/11 08:53:32;;;;;;;1.43;0.93;;;9.10;82.70;;;;;;5041341;28;20555;-76
2022/02/11 08:56:05;;;;;;;1.30;1.20;;;9.10;78.60;;;;;;5040358;28;20516;-76
2022/02/11 08:58:35;;;;;;;2.07;1.20;;;9.00;74.50;;;;;;5038356;28;20444;-76
2022/02/11 09:01:04;;;;;;;1.13;1.07;;;9.00;75.40;;;;;;5044552;28;20484;-75
2022/02/11 09:03:33;;;;;;;1.40;1.00;;;9.20;74.50;;;;;;5038613;28;20452;-76
2022/02/11 09:06:04;;;;;;;2.50;1.20;;;9.00;74.60;;;;;;5040240;28;20470;-76
2022/02/11 09:08:33;;;;;;;3.67;1.40;;;9.10;73.20;;;;;;5036871;28;20486;-76
2022/02/11 09:11:07;;;;;;;1.37;0.90;;;9.10;69.30;;;;;;5038347;28;20519;-76
2022/02/11 09:13:36;;;;;;;3.00;1.10;;;9.50;74.10;;;;;;5041641;28;20447;-76
2022/02/11 09:16:05;;;;;;;1.43;1.00;;;9.50;77.90;;;;;;5037753;28;20467;-76
2022/02/11 09:18:36;;;;;;;1.33;1.00;;;9.60;74.20;;;;;;5040920;28;20449;-75
2022/02/11 09:21:04;;;;;;;3.40;1.30;;;9.70;70.70;;;;;;5040982;28;20478;-75
2022/02/11 09:23:33;;;;;;;2.37;1.20;;;9.60;87.00;;;;;;5042697;28;20834;-76
2022/02/11 09:26:02;;;;;;;1.50;1.10;;;9.80;70.60;;;;;;5042576;28;20453;-76
2022/02/11 09:28:32;;;;;;;1.50;0.90;;;9.90;73.70;;;;;;5036171;28;20475;-76
2022/02/11 09:31:00;;;;;;;1.33;1.10;;;10.00;86.40;;;;;;5034118;28;20471;-76
2022/02/11 09:33:29;;;;;;;1.40;1.30;;;10.20;72.10;;;;;;5040719;28;21095;-76
2022/02/11 09:35:57;;;;;;;2.40;1.33;;;10.10;66.30;;;;;;5041274;28;20459;-76
2022/02/11 09:38:25;;;;;;;1.50;1.20;;;10.20;69.30;;;;;;5040408;28;20444;-76
2022/02/11 09:40:54;;;;;;;2.27;1.27;;;10.50;72.90;;;;;;5036881;28;20475;-76
2022/02/11 09:43:25;;;;;;;1.27;1.10;;;10.70;73.50;;;;;;5062300;28;20470;-77
2022/02/11 09:45:56;;;;;;;1.70;1.30;;;10.70;66.10;;;;;;5039409;28;20465;-76
2022/02/11 09:48:24;;;;;;;2.07;1.50;;;10.70;65.80;;;;;;5033622;28;20570;-76
2022/02/11 09:50:53;;;;;;;1.40;1.20;;;10.80;65.80;;;;;;5041896;28;20997;-75
2022/02/11 09:53:21;;;;;;;1.20;1.10;;;11.00;70.20;;;;;;5042446;28;20459;-77
2022/02/11 09:55:50;;;;;;;3.60;1.07;;;11.10;73.00;;;;;;5043849;28;20970;-76
2022/02/11 09:58:19;;;;;;;2.63;1.33;;;11.50;75.20;;;;;;5046406;28;20452;-77
2022/02/11 10:00:49;;;;;;;3.80;1.37;;;11.80;75.10;;;;;;5045491;28;20486;-77
2022/02/11 10:03:19;;;;;;;3.80;1.30;;;11.80;73.10;;;;;;5043305;28;20474;-76
2022/02/11 10:05:50;;;;;;;1.50;1.40;;;11.80;66.50;;;;;;5045098;28;20543;-76
2022/02/11 10:08:18;;;;;;;2.03;1.50;;;11.70;64.60;;;;;;5045268;28;20493;-76
2022/02/11 10:10:52;;;;;;;5.37;1.10;;;11.80;71.50;;;;;;5042914;28;20471;-77
2022/02/11 10:13:25;;;;;;;1.67;1.10;;;11.90;72.30;;;;;;5044917;28;20539;-76
2022/02/11 10:15:56;;;;;;;2.10;1.20;;;12.10;72.30;;;;;;5041056;28;20464;-76
2022/02/11 10:18:29;;;;;;;2.50;1.07;;;12.30;76.00;;;;;;5046659;28;21038;-77
2022/02/11 10:21:00;;;;;;;1.37;0.80;;;12.30;70.00;;;;;;5039220;28;20486;-76
2022/02/11 10:23:30;;;;;;;2.90;1.00;;;12.30;69.00;;;;;;5042840;28;20460;-77
2022/02/11 10:26:05;;;;;;;4.03;1.33;;;12.10;67.00;;;;;;5044454;28;20467;-78
2022/02/11 10:28:36;;;;;;;2.47;1.20;;;12.20;67.80;;;;;;5040202;28;20453;-78
2022/02/11 10:31:14;;;;;;;5.93;1.30;;;12.20;70.20;;;;;;5042291;28;20226;-76
2022/02/11 10:34:00;;;;;;;1.10;0.90;;;12.00;64.20;;;;;;5048444;28;20464;-77
2022/02/11 10:36:30;;;;;;;3.90;1.03;;;11.80;65.60;;;;;;5039582;28;20515;-77
2022/02/11 10:39:21;;;;;;;3.83;1.10;;;11.60;59.70;;;;;;5037002;28;21066;-77
2022/02/11 10:41:53;;;;;;;1.33;1.00;;;11.70;60.60;;;;;;5046803;28;20457;-77
2022/02/11 10:44:23;;;;;;;3.07;1.70;;;11.80;64.20;;;;;;5049002;28;20468;-76
2022/02/11 10:46:57;;;;;;;1.90;1.30;;;12.00;67.80;;;;;;5039110;28;20478;-77
2022/02/11 10:49:37;;;;;;;1.00;0.90;;;12.30;71.50;;;;;;5045880;28;20470;-77
2022/02/11 10:52:17;;;;;;;1.03;0.90;;;12.50;68.10;;;;;;5047453;28;20506;-77
2022/02/11 10:54:49;;;;;;;4.07;1.13;;;12.30;67.20;;;;;;5043687;28;20909;-77
2022/02/11 10:57:19;;;;;;;0.90;0.80;;;12.40;67.30;;;;;;5040661;28;20466;-77
2022/02/11 10:59:50;;;;;;;3.10;1.00;;;11.80;60.50;;;;;;5039992;28;20467;-77
2022/02/11 11:02:19;;;;;;;5.50;0.97;;;11.70;60.30;;;;;;5042178;28;20452;-77
2022/02/11 11:04:50;;;;;;;3.23;1.30;;;11.70;60.60;;;;;;5046329;28;20470;-78
2022/02/11 11:07:23;;;;;;;2.30;1.00;;;11.70;62.70;;;;;;5042576;28;21359;-77
2022/02/11 11:10:13;;;;;;;3.80;1.27;;;11.80;61.50;;;;;;5043278;28;21026;-77
2022/02/11 11:12:53;;;;;;;4.27;1.23;;;11.90;64.40;;;;;;5042978;28;20465;-78
2022/02/11 11:15:23;;;;;;;3.70;1.20;;;12.20;65.30;;;;;;5042891;28;20453;-77
2022/02/11 11:17:52;;;;;;;4.37;0.90;;;12.40;68.70;;;;;;5044861;28;20559;-75
2022/02/11 11:20:25;;;;;;;1.57;1.00;;;12.70;70.20;;;;;;5039843;28;20810;-78
2022/02/11 11:22:58;;;;;;;1.80;0.90;;;13.10;73.50;;;;;;5042984;28;20449;-77
2022/02/11 11:25:46;;;;;;;3.10;1.23;;;13.20;71.40;;;;;;5046328;28;20456;-77
2022/02/11 11:28:34;;;;;;;1.87;1.00;;;13.20;73.40;;;;;;5041270;28;20462;-78
2022/02/11 11:31:10;;;;;;;1.47;1.00;;;13.60;92.80;;;;;;5042713;28;20528;-78
2022/02/11 11:33:39;;;;;;;1.87;1.17;;;13.60;75.50;;;;;;5043871;28;20455;-78
2022/02/11 11:36:11;;;;;;;1.70;1.00;;;13.50;70.70;;;;;;5044141;28;20459;-78
2022/02/11 11:38:45;;;;;;;1.43;1.33;;;13.40;68.90;;;;;;5042808;28;20799;-77
2022/02/11 11:41:18;;;;;;;2.53;1.07;;;13.40;70.40;;;;;;5041077;28;20586;-78
2022/02/11 11:43:49;;;;;;;1.10;1.00;;;13.30;68.90;;;;;;5039102;28;20470;-78
2022/02/11 11:46:27;;;;;;;1.53;1.43;;;13.10;64.60;;;;;;5037528;28;20513;-77
2022/02/11 11:48:56;;;;;;;1.10;1.00;;;12.70;58.60;;;;;;5039523;28;20454;-77
2022/02/11 11:51:28;;;;;;;2.87;1.00;;;12.50;57.40;;;;;;5037401;28;20454;-77
2022/02/11 11:54:21;;;;;;;1.20;1.10;;;12.20;55.30;;;;;;5038776;28;20439;-78
2022/02/11 11:56:50;;;;;;;1.80;1.10;;;11.90;51.40;;;;;;5039732;28;20557;-77
2022/02/11 11:59:19;;;;;;;1.17;0.97;;;11.60;64.40;;;;;;5039742;28;20217;-77
2022/02/11 12:01:53;;;;;;;2.73;1.20;;;11.40;45.80;;;;;;5040270;28;20455;-78
2022/02/11 12:04:23;;;;;;;1.37;1.07;;;11.10;43.90;;;;;;5038893;28;20444;-77
2022/02/11 12:06:54;;;;;;;1.20;1.10;;;11.10;43.70;;;;;;5039940;28;20463;-75
2022/02/11 12:09:24;;;;;;;1.27;1.10;;;11.00;41.50;;;;;;5041932;28;20490;-77
2022/02/11 12:12:00;;;;;;;1.30;1.00;;;11.00;41.20;;;;;;5040618;28;20452;-76
2022/02/11 12:14:30;;;;;;;1.57;1.20;;;11.00;43.90;;;;;;5038715;28;20461;-77
2022/02/11 12:17:00;;;;;;;2.90;1.20;;;11.30;46.30;;;;;;5043848;28;20533;-77
2022/02/11 12:19:29;;;;;;;1.37;1.00;;;11.10;45.30;;;;;;5037390;28;20475;-77
2022/02/11 12:22:00;;;;;;;0.90;0.90;;;11.10;45.40;;;;;;5041951;28;20462;-77
2022/02/11 12:27:21;;;;;;;3.07;1.00;;;11.20;43.50;;;;;;5043155;28;20452;-78
2022/02/11 12:29:55;;;;;;;1.20;1.10;;;11.40;44.50;;;;;;5041880;28;20493;-78
2022/02/11 12:32:25;;;;;;;1.27;1.17;;;11.50;46.10;;;;;;5040571;28;20469;-78
2022/02/11 12:34:56;;;;;;;1.90;0.87;;;11.60;47.10;;;;;;5043153;28;20466;-78
2022/02/11 12:37:28;;;;;;;1.10;1.00;;;11.70;47.70;;;;;;5042911;28;20478;-77
2022/02/11 12:40:06;;;;;;;2.73;1.00;;;11.50;44.50;;;;;;5042787;28;20605;-78
2022/02/11 12:42:36;;;;;;;1.07;0.90;;;11.70;48.10;;;;;;5040573;28;20516;-77
2022/02/11 12:45:06;;;;;;;2.20;1.00;;;11.70;49.40;;;;;;5047778;28;20460;-78
2022/02/11 12:47:35;;;;;;;1.83;1.00;;;11.70;49.30;;;;;;5042870;28;20458;-77
2022/02/11 12:50:05;;;;;;;1.53;0.83;;;11.70;46.90;;;;;;5038117;28;20475;-77
2022/02/11 12:52:36;;;;;;;1.00;0.90;;;11.80;46.60;;;;;;5042238;28;20505;-78
2022/02/11 12:55:11;;;;;;;4.73;1.10;;;11.70;41.00;;;;;;5036393;28;20809;-77
2022/02/11 12:57:42;;;;;;;1.00;0.90;;;11.60;39.50;;;;;;5037022;28;20443;-77
2022/02/11 13:00:15;;;;;;;2.37;1.00;;;11.70;42.70;;;;;;5038580;28;20993;-78
2022/02/11 13:02:44;;;;;;;1.50;0.90;;;11.50;40.10;;;;;;5043118;28;20447;-77
2022/02/11 13:05:15;;;;;;;0.87;0.87;;;11.50;39.10;;;;;;5040422;28;20460;-77
2022/02/11 13:07:46;;;;;;;0.73;0.73;;;11.40;39.80;;;;;;5041220;28;20457;-77
2022/02/11 13:10:24;;;;;;;1.60;1.00;;;11.40;40.60;;;;;;5041906;28;20481;-77
2022/02/11 13:12:55;;;;;;;0.97;0.80;;;11.40;38.20;;;;;;5037403;28;20452;-77
2022/02/11 13:15:27;;;;;;;1.43;0.97;;;11.20;36.90;;;;;;5042683;28;20465;-77
2022/02/11 13:18:06;;;;;;;0.90;0.90;;;11.10;35.60;;;;;;5038354;28;20559;-77
2022/02/11 13:20:37;;;;;;;1.70;0.90;;;11.00;35.50;;;;;;5043154;28;20533;-77
2022/02/11 13:23:07;;;;;;;1.90;0.80;;;11.00;34.80;;;;;;5035124;28;21058;-77
2022/02/11 13:25:39;;;;;;;0.97;0.97;;;10.80;33.60;;;;;;5041068;28;20554;-77
2022/02/11 13:28:09;;;;;;;1.10;0.90;;;10.80;32.10;;;;;;5039738;28;20483;-77
2022/02/11 13:30:43;;;;;;;1.07;0.83;;;10.80;32.90;;;;;;5041687;28;20564;-77
2022/02/11 13:33:22;;;;;;;1.20;1.00;;;10.80;33.00;;;;;;5041910;28;20505;-76
2022/02/11 13:35:51;;;;;;;3.13;0.97;;;10.80;34.10;;;;;;5040408;28;20470;-78
2022/02/11 13:38:26;;;;;;;1.70;1.20;;;10.80;34.50;;;;;;5036889;28;20462;-78
2022/02/11 13:40:56;;;;;;;2.20;1.40;;;10.80;34.70;;;;;;5050196;28;20492;-77
2022/02/11 13:43:25;;;;;;;1.10;1.00;;;10.80;34.20;;;;;;5041453;28;20960;-77
2022/02/11 13:45:56;;;;;;;5.20;0.87;;;10.80;35.70;;;;;;5037623;28;20461;-77
2022/02/11 13:48:27;;;;;;;3.10;1.00;;;10.90;37.80;;;;;;5035523;28;20447;-77
2022/02/11 13:50:58;;;;;;;1.40;0.80;;;11.00;36.80;;;;;;5043717;28;20638;-77
2022/02/11 13:53:30;;;;;;;2.30;1.20;;;11.00;36.20;;;;;;5041461;28;20457;-76
2022/02/11 13:55:58;;;;;;;2.03;0.93;;;11.10;35.90;;;;;;5043540;28;20452;-76
2022/02/11 13:58:27;;;;;;;0.80;0.80;;;11.10;35.40;;;;;;5039431;28;20465;-77
2022/02/11 14:00:55;;;;;;;1.33;0.87;;;11.00;34.40;;;;;;5041439;28;20479;-77
2022/02/11 14:03:26;;;;;;;1.60;1.00;;;11.00;35.30;;;;;;5035646;28;20465;-77
2022/02/11 14:06:00;;;;;;;1.10;0.90;;;11.00;35.80;;;;;;5040503;28;20470;-77
2022/02/11 14:08:44;;;;;;;1.53;1.03;;;11.00;34.30;;;;;;5035645;28;20467;-77
2022/02/11 14:11:15;;;;;;;2.23;1.00;;;11.10;34.90;;;;;;5040820;28;20487;-75
2022/02/11 14:13:44;;;;;;;4.10;1.50;;;11.20;35.90;;;;;;5044026;28;20562;-77
2022/02/11 14:16:12;;;;;;;2.50;1.27;;;11.20;38.50;;;;;;5036069;28;20531;-77
2022/02/11 14:18:42;;;;;;;2.10;1.23;;;11.20;37.90;;;;;;5037597;28;20255;-77
2022/02/11 14:21:12;;;;;;;1.87;1.50;;;11.20;37.50;;;;;;5040625;28;20479;-78
2022/02/11 14:23:41;;;;;;;1.17;0.97;;;11.20;37.00;;;;;;5039511;28;20464;-77
2022/02/11 14:26:10;;;;;;;1.17;0.97;;;11.20;36.40;;;;;;5043500;28;21013;-77
2022/02/11 14:28:38;;;;;;;1.53;1.00;;;11.10;35.10;;;;;;5048017;28;20456;-77
2022/02/11 14:31:08;;;;;;;2.00;1.30;;;11.10;36.60;;;;;;5043633;28;20479;-77
2022/02/11 14:33:36;;;;;;;1.73;0.97;;;11.20;35.60;;;;;;5039336;28;20455;-78
2022/02/11 14:36:05;;;;;;;2.23;1.10;;;11.00;36.70;;;;;;5037555;28;20472;-78
2022/02/11 14:38:34;;;;;;;1.60;0.97;;;11.00;34.10;;;;;;5040114;28;20460;-76
2022/02/11 14:43:49;;;;;;;1.23;0.97;;;10.90;33.60;;;;;;5041152;28;20463;-77
2022/02/11 14:46:18;;;;;;;2.03;1.10;;;10.90;35.00;;;;;;5042307;28;20458;-77
2022/02/11 14:48:46;;;;;;;2.30;0.97;;;10.90;32.90;;;;;;5044010;28;20472;-77
2022/02/11 14:51:14;;;;;;;3.40;0.90;;;10.90;31.60;;;;;;5042300;28;20479;-76
2022/02/11 14:53:42;;;;;;;1.90;0.90;;;10.90;32.30;;;;;;5044696;28;20700;-77
2022/02/11 14:56:10;;;;;;;3.03;1.43;;;10.80;31.10;;;;;;5044908;28;20455;-77
2022/02/11 14:58:39;;;;;;;2.93;1.03;;;10.80;30.50;;;;;;5041042;28;20464;-76
2022/02/11 15:01:11;;;;;;;1.03;0.93;;;10.70;28.80;;;;;;5046202;28;20479;-77
2022/02/11 15:03:40;;;;;;;1.67;1.13;;;10.70;26.30;;;;;;5042520;28;20484;-77
2022/02/11 15:06:08;;;;;;;1.53;0.90;;;10.60;25.90;;;;;;5040527;28;20977;-77
2022/02/11 15:08:36;;;;;;;3.17;1.27;;;10.60;27.30;;;;;;5042756;28;20485;-77
2022/02/11 15:11:05;;;;;;;1.30;0.87;;;10.60;26.70;;;;;;5042007;28;20492;-77
2022/02/11 15:13:33;;;;;;;1.10;1.00;;;10.70;27.70;;;;;;5042636;28;20989;-76
2022/02/11 15:16:01;;;;;;;2.00;1.10;;;10.70;27.60;;;;;;5043832;28;20452;-76
2022/02/11 15:18:31;;;;;;;4.20;2.03;;;10.70;28.20;;;;;;5041838;28;20463;-77
2022/02/11 15:21:04;;;;;;;1.90;1.07;;;10.70;27.70;;;;;;5040222;28;20488;-77
2022/02/11 15:23:33;;;;;;;2.70;1.07;;;10.70;26.70;;;;;;5044957;28;20545;-77
2022/02/11 15:26:02;;;;;;;1.00;0.87;;;10.80;28.10;;;;;;5043288;28;20455;-77
2022/02/11 15:28:30;;;;;;;1.57;1.07;;;10.90;27.20;;;;;;5046540;28;20488;-79
2022/02/11 15:30:59;;;;;;;1.20;1.10;;;10.90;28.90;;;;;;5046986;28;20478;-78
2022/02/11 15:33:28;;;;;;;2.00;1.00;;;11.00;30.80;;;;;;5040216;28;20959;-76
2022/02/11 15:35:58;;;;;;;1.57;0.80;;;10.90;28.20;;;;;;5039233;28;20455;-78
2022/02/11 15:38:26;;;;;;;1.23;0.97;;;10.90;26.60;;;;;;5034964;28;20460;-76
2022/02/11 15:40:55;;;;;;;2.10;0.97;;;10.90;28.20;;;;;;5041592;28;20485;-77
2022/02/11 15:43:23;;;;;;;1.80;1.20;;;11.00;28.40;;;;;;5040113;28;20462;-78
2022/02/11 15:45:52;;;;;;;4.60;1.33;;;10.90;28.00;;;;;;5037760;28;20874;-77
2022/02/11 15:48:20;;;;;;;1.50;1.10;;;10.90;27.90;;;;;;5035828;28;20463;-76
2022/02/11 15:50:48;;;;;;;2.10;1.10;;;10.80;27.00;;;;;;5040169;28;20935;-77
2022/02/11 15:53:19;;;;;;;2.70;1.37;;;10.80;26.70;;;;;;5040762;28;20591;-76
2022/02/11 15:55:48;;;;;;;1.50;0.90;;;10.80;27.40;;;;;;5040468;28;20454;-78
2022/02/11 15:58:16;;;;;;;2.83;1.00;;;10.80;27.00;;;;;;5040392;28;20976;-78
2022/02/11 16:00:44;;;;;;;2.80;1.10;;;10.80;26.80;;;;;;5036819;28;20485;-78
2022/02/11 16:03:12;;;;;;;1.07;1.00;;;10.70;27.40;;;;;;5038667;28;20451;-78
2022/02/11 16:05:40;;;;;;;3.83;1.00;;;10.70;26.50;;;;;;5040174;28;20555;-79
2022/02/11 16:08:08;;;;;;;0.90;0.90;;;10.70;26.30;;;;;;5044621;28;21056;-78
2022/02/11 16:10:38;;;;;;;4.63;1.20;;;10.70;26.50;;;;;;5037303;28;20558;-78
2022/02/11 16:13:06;;;;;;;2.10;1.30;;;10.70;26.10;;;;;;5040330;28;20585;-79
2022/02/11 16:15:35;;;;;;;1.57;0.97;;;10.70;26.90;;;;;;5034447;28;20456;-77
2022/02/11 16:18:04;;;;;;;1.63;1.00;;;10.70;27.70;;;;;;5028669;28;20471;-77
2022/02/11 16:20:35;;;;;;;2.33;1.10;;;10.70;26.70;;;;;;5036683;28;20472;-78
2022/02/11 16:23:06;;;;;;;2.83;0.97;;;10.70;26.50;;;;;;5038243;28;20462;-78
2022/02/11 16:25:35;;;;;;;2.37;0.87;;;10.70;26.60;;;;;;5035213;28;21153;-77
2022/02/11 16:28:06;;;;;;;2.13;1.17;;;10.90;27.20;;;;;;5037114;28;20562;-78